createdAt,value
2018-04-13T00:00:18.391Z,14.50
2018-04-13T00:02:46.735Z,14.50
2018-04-13T00:05:15.129Z,14.60
2018-04-13T00:07:44.256Z,14.40
2018-04-13T00:10:12.627Z,14.40
2018-04-13T00:12:41.021Z,14.30
2018-04-13T00:15:09.400Z,14.20
2018-04-13T00:17:37.754Z,14.00
2018-04-13T00:20:06.192Z,13.90
2018-04-13T00:22:34.592Z,13.70
2018-04-13T00:25:03.807Z,13.50
2018-04-13T00:27:32.152Z,13.50
2018-04-13T00:30:00.570Z,13.40
2018-04-13T00:32:28.969Z,13.30
2018-04-13T00:34:57.376Z,13.30
2018-04-13T00:37:25.771Z,13.20
2018-04-13T00:39:54.186Z,13.20
2018-04-13T00:42:23.262Z,13.00
2018-04-13T00:44:52.380Z,13.10
2018-04-13T00:47:20.715Z,13.10
2018-04-13T00:49:49.116Z,13.20
2018-04-13T00:52:18.225Z,13.10
2018-04-13T00:54:46.586Z,13.10
2018-04-13T00:57:15.788Z,12.90
2018-04-13T00:59:44.146Z,12.90
2018-04-13T01:02:12.661Z,12.80
2018-04-13T01:04:41.037Z,12.80
2018-04-13T01:07:09.397Z,12.80
2018-04-13T01:09:38.559Z,12.80
2018-04-13T01:12:06.920Z,12.80
2018-04-13T01:14:35.300Z,12.70
2018-04-13T01:17:03.677Z,12.50
2018-04-13T01:19:32.099Z,12.40
2018-04-13T01:22:01.205Z,12.30
2018-04-13T01:24:30.337Z,12.20
2018-04-13T01:26:58.712Z,12.20
2018-04-13T01:29:27.114Z,12.10
2018-04-13T01:31:56.229Z,12.10
2018-04-13T01:34:24.672Z,12.00
2018-04-13T01:36:53.077Z,12.10
2018-04-13T01:39:21.416Z,12.20
2018-04-13T01:41:49.840Z,12.20
2018-04-13T01:44:18.221Z,12.20
2018-04-13T01:46:46.616Z,12.20
2018-04-13T01:49:15.778Z,12.10
2018-04-13T01:51:44.138Z,12.10
2018-04-13T01:54:12.560Z,12.10
2018-04-13T01:56:41.679Z,12.20
2018-04-13T01:59:10.057Z,12.20
2018-04-13T02:01:38.507Z,12.20
2018-04-13T02:04:06.853Z,12.30
2018-04-13T02:06:35.209Z,12.30
2018-04-13T02:09:03.694Z,12.40
2018-04-13T02:11:32.135Z,12.40
2018-04-13T02:14:01.264Z,12.40
2018-04-13T02:16:30.396Z,12.40
2018-04-13T02:18:58.787Z,12.40
2018-04-13T02:21:27.124Z,12.30
2018-04-13T02:23:55.499Z,12.30
2018-04-13T02:26:23.863Z,12.30
2018-04-13T02:28:52.662Z,12.20
2018-04-13T02:31:21.026Z,12.20
2018-04-13T02:33:49.437Z,12.20
2018-04-13T02:36:17.830Z,12.20
2018-04-13T02:38:46.165Z,12.20
2018-04-13T02:41:15.012Z,12.10
2018-04-13T02:43:44.156Z,12.10
2018-04-13T02:46:12.552Z,12.00
2018-04-13T02:48:40.944Z,12.10
2018-04-13T02:51:09.285Z,12.00
2018-04-13T02:53:37.685Z,12.00
2018-04-13T02:56:06.105Z,12.00
2018-04-13T02:58:35.248Z,12.00
2018-04-13T03:01:03.629Z,12.00
2018-04-13T03:03:32.030Z,12.00
2018-04-13T03:06:00.413Z,12.00
2018-04-13T03:08:28.789Z,12.00
2018-04-13T03:10:57.224Z,12.00
2018-04-13T03:13:25.592Z,12.00
2018-04-13T03:15:53.975Z,12.10
2018-04-13T03:18:22.365Z,12.10
2018-04-13T03:20:50.755Z,12.10
2018-04-13T03:23:19.121Z,12.10
2018-04-13T03:25:47.506Z,12.10
2018-04-13T03:28:15.897Z,12.10
2018-04-13T03:30:44.269Z,12.10
2018-04-13T03:33:12.689Z,12.10
2018-04-13T03:35:41.798Z,12.10
2018-04-13T03:38:10.973Z,12.10
2018-04-13T03:40:39.695Z,12.00
2018-04-13T03:43:08.097Z,12.10
2018-04-13T03:45:36.460Z,12.10
2018-04-13T03:48:04.812Z,12.00
2018-04-13T03:50:33.907Z,12.00
2018-04-13T03:53:03.042Z,12.00
2018-04-13T03:55:32.139Z,11.90
2018-04-13T03:58:00.836Z,11.90
2018-04-13T04:00:29.196Z,11.90
2018-04-13T04:02:57.528Z,11.90
2018-04-13T04:05:26.669Z,11.90
2018-04-13T04:07:55.053Z,11.90
2018-04-13T04:10:23.433Z,11.90
2018-04-13T04:12:51.815Z,11.90
2018-04-13T04:15:20.195Z,12.00
2018-04-13T04:17:48.556Z,11.90
2018-04-13T04:20:28.792Z,11.90
2018-04-13T04:23:09.119Z,11.90
2018-04-13T04:26:04.548Z,11.90
2018-04-13T04:28:32.934Z,11.90
2018-04-13T04:31:01.325Z,12.00
2018-04-13T04:33:29.678Z,12.00
2018-04-13T04:35:58.779Z,12.00
2018-04-13T04:38:28.011Z,12.00
2018-04-13T04:40:56.357Z,12.00
2018-04-13T04:43:24.729Z,12.00
2018-04-13T04:45:53.896Z,12.00
2018-04-13T04:48:23.151Z,11.90
2018-04-13T04:50:51.555Z,11.90
2018-04-13T04:53:19.962Z,11.90
2018-04-13T04:55:48.378Z,11.80
2018-04-13T04:58:16.858Z,11.80
2018-04-13T05:00:45.268Z,11.80
2018-04-13T05:03:13.685Z,11.80
2018-04-13T05:05:42.856Z,11.80
2018-04-13T05:08:11.267Z,11.80
2018-04-13T05:10:40.784Z,11.80
2018-04-13T05:13:09.158Z,11.80
2018-04-13T05:15:38.307Z,11.80
2018-04-13T05:18:06.692Z,11.80
2018-04-13T05:20:35.063Z,11.90
2018-04-13T05:23:03.509Z,11.90
2018-04-13T05:25:31.905Z,12.00
2018-04-13T05:28:00.312Z,11.90
2018-04-13T05:30:28.829Z,12.00
2018-04-13T05:32:57.206Z,12.00
2018-04-13T05:35:26.366Z,12.00
2018-04-13T05:37:54.767Z,11.90
2018-04-13T05:40:23.924Z,12.00
2018-04-13T05:42:52.320Z,12.00
2018-04-13T05:45:20.834Z,12.00
2018-04-13T05:47:49.992Z,12.00
2018-04-13T05:50:18.322Z,11.90
2018-04-13T05:52:46.674Z,12.00
2018-04-13T05:55:15.857Z,12.00
2018-04-13T05:57:44.264Z,11.90
2018-04-13T06:00:13.824Z,12.00
2018-04-13T06:02:42.162Z,12.00
2018-04-13T06:05:10.495Z,12.10
2018-04-13T06:07:39.015Z,12.10
2018-04-13T06:10:07.416Z,12.20
2018-04-13T06:12:35.814Z,12.20
2018-04-13T06:15:04.663Z,12.30
2018-04-13T06:17:33.064Z,12.40
2018-04-13T06:20:01.395Z,12.50
2018-04-13T06:22:30.579Z,12.70
2018-04-13T06:24:58.965Z,12.70
2018-04-13T06:27:28.268Z,12.90
2018-04-13T06:29:57.421Z,13.00
2018-04-13T06:32:25.812Z,13.00
2018-04-13T06:34:54.223Z,13.30
2018-04-13T06:37:23.404Z,13.50
2018-04-13T06:39:51.760Z,13.40
2018-04-13T06:42:20.090Z,13.60
2018-04-13T06:44:48.505Z,13.80
2018-04-13T06:47:16.887Z,13.90
2018-04-13T06:49:45.395Z,14.10
2018-04-13T06:52:13.783Z,14.40
2018-04-13T06:54:42.884Z,14.60
2018-04-13T06:57:12.083Z,14.80
2018-04-13T06:59:41.268Z,14.90
2018-04-13T07:02:10.423Z,14.90
2018-04-13T07:04:38.784Z,14.90
2018-04-13T07:07:07.151Z,14.90
2018-04-13T07:09:35.507Z,14.90
2018-04-13T07:12:04.669Z,14.80
2018-04-13T07:14:33.207Z,14.80
2018-04-13T07:17:01.578Z,14.90
2018-04-13T07:19:29.980Z,14.80
2018-04-13T07:21:58.391Z,14.80
2018-04-13T07:24:26.807Z,14.70
2018-04-13T07:26:55.168Z,14.80
2018-04-13T07:29:24.368Z,15.00
2018-04-13T07:31:53.956Z,15.10
2018-04-13T07:34:23.267Z,15.10
2018-04-13T07:36:51.463Z,15.10
2018-04-13T07:39:19.901Z,15.20
2018-04-13T07:41:48.270Z,15.30
2018-04-13T07:44:16.680Z,15.40
2018-04-13T07:46:45.851Z,15.50
2018-04-13T07:49:14.399Z,15.40
2018-04-13T07:51:42.809Z,15.50
2018-04-13T07:54:11.210Z,15.60
2018-04-13T07:56:39.728Z,15.70
2018-04-13T07:59:08.107Z,15.70
2018-04-13T08:01:36.504Z,15.80
2018-04-13T08:04:04.929Z,15.90
2018-04-13T08:06:34.273Z,16.10
2018-04-13T08:09:02.544Z,16.10
2018-04-13T08:11:31.651Z,16.20
2018-04-13T08:14:00.069Z,16.10
2018-04-13T08:16:28.483Z,16.20
2018-04-13T08:18:56.844Z,16.20
2018-04-13T08:21:25.943Z,16.40
2018-04-13T08:23:55.087Z,16.30
2018-04-13T08:26:23.481Z,16.30
2018-04-13T08:28:51.887Z,16.30
2018-04-13T08:31:20.987Z,16.30
2018-04-13T08:33:50.116Z,16.20
2018-04-13T08:36:18.480Z,16.20
2018-04-13T08:38:46.961Z,16.20
2018-04-13T08:41:15.360Z,16.20
2018-04-13T08:43:43.801Z,16.10
2018-04-13T08:46:13.080Z,16.10
2018-04-13T08:48:42.579Z,16.20
2018-04-13T08:51:11.413Z,16.10
2018-04-13T08:53:39.865Z,16.20
2018-04-13T08:56:09.016Z,16.10
2018-04-13T08:58:37.774Z,16.00
2018-04-13T09:01:06.170Z,16.20
2018-04-13T09:03:34.508Z,16.10
2018-04-13T09:06:03.648Z,16.10
2018-04-13T09:08:32.060Z,16.10
2018-04-13T09:11:00.425Z,16.30
2018-04-13T09:13:28.927Z,16.30
2018-04-13T09:15:57.269Z,16.30
2018-04-13T09:18:25.598Z,16.20
2018-04-13T09:20:54.951Z,16.40
2018-04-13T09:23:23.665Z,16.40
2018-04-13T09:25:52.070Z,16.40
2018-04-13T09:28:20.563Z,16.40
2018-04-13T09:30:48.967Z,16.40
2018-04-13T09:33:17.359Z,16.60
2018-04-13T09:35:45.799Z,16.80
2018-04-13T09:38:14.130Z,17.00
2018-04-13T09:40:42.536Z,16.80
2018-04-13T09:43:11.688Z,17.00
2018-04-13T09:45:40.036Z,17.00
2018-04-13T09:48:08.387Z,17.10
2018-04-13T09:50:37.508Z,16.80
2018-04-13T09:53:05.915Z,16.70
2018-04-13T09:55:34.298Z,16.50
2018-04-13T09:58:02.635Z,16.50
2018-04-13T10:00:31.028Z,16.50
2018-04-13T10:03:03.323Z,16.50
2018-04-13T10:05:31.695Z,16.60
2018-04-13T10:08:00.127Z,16.30
2018-04-13T10:10:29.296Z,16.10
2018-04-13T10:12:57.838Z,16.10
2018-04-13T10:15:26.227Z,16.20
2018-04-13T10:17:54.593Z,16.10
2018-04-13T10:20:23.009Z,16.00
2018-04-13T10:22:51.338Z,15.90
2018-04-13T10:25:20.453Z,15.80
2018-04-13T10:27:49.647Z,15.60
2018-04-13T10:30:17.975Z,15.60
2018-04-13T10:32:47.150Z,15.60
2018-04-13T10:35:15.483Z,15.60
2018-04-13T10:37:43.891Z,15.70
2018-04-13T10:40:12.285Z,15.70
2018-04-13T10:42:40.680Z,15.70
2018-04-13T10:45:09.781Z,15.50
2018-04-13T10:47:39.003Z,15.40
2018-04-13T10:50:07.367Z,15.40
2018-04-13T10:52:35.760Z,15.20
2018-04-13T10:55:04.172Z,15.10
2018-04-13T10:57:32.700Z,15.00
2018-04-13T11:00:01.062Z,15.00
2018-04-13T11:02:29.667Z,15.00
2018-04-13T11:04:58.058Z,14.90
2018-04-13T11:07:27.213Z,14.80
2018-04-13T11:09:56.016Z,14.80
2018-04-13T11:12:25.166Z,14.60
2018-04-13T11:14:53.551Z,14.60
2018-04-13T11:17:21.967Z,14.60
2018-04-13T11:19:51.124Z,14.50
2018-04-13T11:22:19.626Z,14.50
2018-04-13T11:24:48.009Z,14.50
2018-04-13T11:27:17.192Z,14.60
2018-04-13T11:29:45.556Z,14.50
2018-04-13T11:32:14.084Z,14.50
2018-04-13T11:34:43.245Z,14.20
2018-04-13T11:37:11.645Z,14.20
2018-04-13T11:39:40.852Z,14.20
2018-04-13T11:42:10.007Z,14.20
2018-04-13T11:44:38.821Z,14.10
2018-04-13T11:47:07.982Z,14.00
2018-04-13T11:49:36.378Z,14.00
2018-04-13T11:52:04.821Z,14.00
2018-04-13T11:54:33.211Z,13.90
2018-04-13T11:57:01.711Z,13.90
2018-04-13T11:59:30.105Z,13.90
2018-04-13T12:01:58.512Z,13.90
2018-04-13T12:04:26.901Z,13.80
2018-04-13T12:06:55.264Z,13.90
2018-04-13T12:09:24.420Z,13.90
2018-04-13T12:11:53.237Z,13.90
2018-04-13T12:14:22.342Z,14.00
2018-04-13T12:16:51.477Z,14.00
2018-04-13T12:19:19.900Z,14.00
2018-04-13T12:21:49.084Z,14.10
2018-04-13T12:24:17.499Z,14.00
2018-04-13T12:26:45.913Z,14.00
2018-04-13T12:29:14.787Z,13.90
2018-04-13T12:31:43.239Z,13.80
2018-04-13T12:34:12.366Z,13.80
2018-04-13T12:36:40.753Z,13.80
2018-04-13T12:39:09.139Z,13.80
2018-04-13T12:41:37.703Z,13.70
2018-04-13T12:44:06.031Z,13.70
2018-04-13T12:46:34.368Z,13.70
2018-04-13T12:49:02.786Z,13.70
2018-04-13T12:51:31.149Z,13.90
2018-04-13T12:53:59.889Z,13.90
2018-04-13T12:56:29.087Z,13.80
2018-04-13T12:58:58.146Z,13.90
2018-04-13T13:01:26.494Z,13.90
2018-04-13T13:03:54.861Z,13.90
2018-04-13T13:06:23.518Z,13.80
2018-04-13T13:08:51.947Z,13.80
2018-04-13T13:11:20.320Z,13.80
2018-04-13T13:13:48.680Z,13.80
2018-04-13T13:16:17.121Z,13.80
2018-04-13T13:18:46.320Z,13.90
2018-04-13T13:21:14.726Z,13.90
2018-04-13T13:23:43.257Z,13.90
2018-04-13T13:26:11.644Z,13.90
2018-04-13T13:28:40.899Z,14.00
2018-04-13T13:31:09.289Z,14.00
2018-04-13T13:33:37.653Z,14.00
2018-04-13T13:36:06.148Z,14.10
2018-04-13T13:38:34.485Z,14.10
2018-04-13T13:41:03.016Z,13.90
2018-04-13T13:43:31.954Z,13.90
2018-04-13T13:46:01.113Z,13.80
2018-04-13T13:48:30.249Z,13.80
2018-04-13T13:50:58.692Z,13.80
2018-04-13T13:53:27.194Z,13.80
2018-04-13T13:55:55.583Z,13.80
2018-04-13T13:58:24.000Z,13.80
2018-04-13T14:00:52.903Z,13.80
2018-04-13T14:03:21.296Z,13.80
2018-04-13T14:05:49.650Z,13.80
2018-04-13T14:08:18.112Z,13.70
2018-04-13T14:10:46.480Z,13.70
2018-04-13T14:13:14.808Z,13.70
2018-04-13T14:15:43.191Z,13.70
2018-04-13T14:18:12.419Z,13.70
2018-04-13T14:20:40.754Z,13.70
2018-04-13T14:23:09.147Z,13.70
2018-04-13T14:25:38.363Z,13.60
2018-04-13T14:28:06.752Z,13.60
2018-04-13T14:30:35.882Z,13.60
2018-04-13T14:33:04.239Z,13.50
2018-04-13T14:35:32.623Z,13.40
2018-04-13T14:38:01.034Z,13.40
2018-04-13T14:40:29.445Z,13.40
2018-04-13T14:42:57.831Z,13.50
2018-04-13T14:45:26.220Z,13.50
2018-04-13T14:47:54.655Z,13.50
2018-04-13T14:50:23.017Z,13.50
2018-04-13T14:52:51.400Z,13.50
2018-04-13T14:55:19.785Z,13.50
2018-04-13T14:57:48.193Z,13.50
2018-04-13T15:00:17.371Z,13.40
2018-04-13T15:02:46.543Z,13.50
2018-04-13T15:05:14.951Z,13.50
2018-04-13T15:07:44.109Z,13.50
2018-04-13T15:10:12.524Z,13.50
2018-04-13T15:12:41.680Z,13.40
2018-04-13T15:15:10.094Z,13.40
2018-04-13T15:17:38.489Z,13.40
2018-04-13T15:20:07.644Z,13.30
2018-04-13T15:22:36.048Z,13.30
2018-04-13T15:25:04.476Z,13.30
2018-04-13T15:27:33.218Z,13.30
2018-04-13T15:30:02.955Z,13.30
2018-04-13T15:32:31.400Z,13.30
2018-04-13T15:34:59.821Z,13.30
2018-04-13T15:37:28.184Z,13.20
2018-04-13T15:39:56.548Z,13.20
2018-04-13T15:42:25.728Z,13.20
2018-04-13T15:44:54.111Z,13.10
2018-04-13T15:47:23.272Z,13.20
2018-04-13T15:49:51.695Z,13.20
2018-04-13T15:52:20.795Z,13.10
2018-04-13T15:54:50.371Z,13.10
2018-04-13T15:57:18.708Z,13.10
2018-04-13T15:59:47.042Z,13.10
2018-04-13T16:02:16.508Z,13.10
2018-04-13T16:04:44.890Z,13.10
2018-04-13T16:07:13.251Z,13.10
2018-04-13T16:09:41.609Z,13.10
2018-04-13T16:12:09.970Z,13.10
2018-04-13T16:14:39.115Z,13.00
2018-04-13T16:17:07.473Z,13.00
2018-04-13T16:19:35.826Z,12.90
2018-04-13T16:22:04.230Z,12.90
2018-04-13T16:24:33.438Z,13.00
2018-04-13T16:27:01.860Z,12.90
2018-04-13T16:29:32.880Z,12.80
2018-04-13T16:32:03.013Z,12.80
2018-04-13T16:34:31.403Z,12.80
2018-04-13T16:37:02.545Z,12.80
2018-04-13T16:39:31.700Z,12.80
2018-04-13T16:42:00.064Z,12.80
2018-04-13T16:44:28.416Z,12.80
2018-04-13T16:46:56.754Z,12.80
2018-04-13T16:49:25.177Z,12.70
2018-04-13T16:51:53.590Z,12.70
2018-04-13T16:54:22.312Z,12.70
2018-04-13T16:56:50.715Z,12.70
2018-04-13T16:59:19.083Z,12.60
2018-04-13T17:01:50.153Z,12.60
2018-04-13T17:04:18.497Z,12.60
2018-04-13T17:06:47.635Z,12.50
2018-04-13T17:09:16.018Z,12.50
2018-04-13T17:11:44.410Z,12.50
2018-04-13T17:14:12.867Z,12.50
2018-04-13T17:16:41.215Z,12.50
2018-04-13T17:19:09.732Z,12.40
2018-04-13T17:21:38.131Z,12.40
2018-04-13T17:24:06.544Z,12.30
2018-04-13T17:26:35.743Z,12.20
2018-04-13T17:29:04.876Z,12.30
2018-04-13T17:31:33.276Z,12.20
2018-04-13T17:34:01.664Z,12.30
2018-04-13T17:36:30.078Z,12.20
2018-04-13T17:38:58.467Z,12.20
2018-04-13T17:41:26.856Z,12.20
2018-04-13T17:43:55.244Z,12.20
2018-04-13T17:46:23.605Z,12.20
2018-04-13T17:48:51.995Z,12.20
2018-04-13T17:51:20.388Z,12.20
2018-04-13T17:53:48.805Z,12.20
2018-04-13T17:56:17.940Z,12.30
2018-04-13T17:58:46.407Z,12.20
2018-04-13T18:01:14.768Z,12.30
2018-04-13T18:03:43.933Z,12.30
2018-04-13T18:06:12.306Z,12.30
2018-04-13T18:08:40.716Z,12.30
2018-04-13T18:11:09.859Z,12.30
2018-04-13T18:13:38.183Z,12.30
2018-04-13T18:16:06.592Z,12.30
2018-04-13T18:18:35.033Z,12.30
2018-04-13T18:21:03.477Z,12.30
2018-04-13T18:23:32.265Z,12.30
2018-04-13T18:26:00.690Z,12.30
2018-04-13T18:28:29.885Z,12.30
2018-04-13T18:30:58.992Z,12.30
2018-04-13T18:33:28.173Z,12.20
2018-04-13T18:35:56.542Z,12.20
2018-04-13T18:38:24.934Z,12.30
2018-04-13T18:40:54.095Z,12.60
2018-04-13T18:43:22.495Z,12.60
2018-04-13T18:45:51.371Z,12.70
2018-04-13T18:48:19.739Z,12.70
2018-04-13T18:50:48.118Z,12.70
2018-04-13T18:53:16.577Z,12.70
2018-04-13T18:55:44.966Z,12.70
2018-04-13T18:58:13.474Z,12.70
2018-04-13T19:00:42.113Z,12.80
2018-04-13T19:03:10.475Z,12.80
2018-04-13T19:05:38.890Z,12.80
2018-04-13T19:08:07.286Z,12.90
2018-04-13T19:13:15.458Z,12.90
2018-04-13T19:15:43.828Z,12.90
2018-04-13T19:18:13.005Z,12.90
2018-04-13T19:20:41.372Z,12.90
2018-04-13T19:23:09.784Z,12.90
2018-04-13T19:25:38.912Z,12.90
2018-04-13T19:28:07.271Z,12.90
2018-04-13T19:30:35.659Z,13.00
2018-04-13T19:33:04.203Z,13.00
2018-04-13T19:35:33.352Z,13.00
2018-04-13T19:38:01.743Z,13.00
2018-04-13T19:40:30.244Z,13.00
2018-04-13T19:42:58.627Z,13.00
2018-04-13T19:45:27.119Z,12.90
2018-04-13T19:47:55.435Z,12.90
2018-04-13T19:50:23.850Z,12.90
2018-04-13T19:52:52.262Z,12.90
2018-04-13T19:55:21.439Z,12.80
2018-04-13T19:57:49.959Z,12.80
2018-04-13T20:00:18.540Z,12.70
2018-04-13T20:02:46.887Z,12.70
2018-04-13T20:05:16.043Z,12.70
2018-04-13T20:07:44.434Z,12.70
2018-04-13T20:10:12.827Z,12.70
2018-04-13T20:12:41.235Z,12.60
2018-04-13T20:15:09.644Z,12.60
2018-04-13T20:17:38.091Z,12.60
2018-04-13T20:20:07.247Z,12.60
2018-04-13T20:22:35.642Z,12.60
2018-04-13T20:25:04.012Z,12.60
2018-04-13T20:27:33.315Z,12.60
2018-04-13T20:30:01.744Z,12.60
2018-04-13T20:32:30.594Z,12.50
2018-04-13T20:34:59.795Z,12.50
2018-04-13T20:37:28.895Z,12.50
2018-04-13T20:39:58.074Z,12.40
2018-04-13T20:42:26.449Z,12.40
2018-04-13T20:44:54.844Z,12.40
2018-04-13T20:47:24.002Z,12.40
2018-04-13T20:49:52.417Z,12.40
2018-04-13T20:52:21.584Z,12.40
2018-04-13T20:54:49.957Z,12.40
2018-04-13T20:57:18.368Z,12.40
2018-04-13T20:59:47.556Z,12.30
2018-04-13T21:02:16.727Z,12.40
2018-04-13T21:04:45.144Z,12.40
2018-04-13T21:07:14.324Z,12.50
2018-04-13T21:09:42.754Z,12.40
2018-04-13T21:12:11.185Z,12.50
2018-04-13T21:14:39.612Z,12.50
2018-04-13T21:17:08.012Z,12.50
2018-04-13T21:19:36.437Z,12.50
2018-04-13T21:22:05.627Z,12.50
2018-04-13T21:24:34.754Z,12.50
2018-04-13T21:27:03.171Z,12.50
2018-04-13T21:29:32.341Z,12.50
2018-04-13T21:32:00.757Z,12.50
2018-04-13T21:34:29.130Z,12.50
2018-04-13T21:36:57.656Z,12.50
2018-04-13T21:39:26.030Z,12.50
2018-04-13T21:41:55.163Z,12.50
2018-04-13T21:44:23.584Z,12.50
2018-04-13T21:46:51.952Z,12.50
2018-04-13T21:49:20.480Z,12.40
2018-04-13T21:51:48.838Z,12.40
2018-04-13T21:54:17.999Z,12.40
2018-04-13T21:56:46.380Z,12.40
2018-04-13T21:59:14.753Z,12.40
2018-04-13T22:01:43.102Z,12.40
2018-04-13T22:04:11.469Z,12.30
2018-04-13T22:06:39.807Z,12.30
2018-04-13T22:09:08.993Z,12.30
2018-04-13T22:11:37.392Z,12.20
2018-04-13T22:14:18.585Z,12.30
2018-04-13T22:16:46.911Z,12.20
2018-04-13T22:19:15.334Z,12.20
2018-04-13T22:21:43.735Z,12.20
2018-04-13T22:24:12.132Z,12.10
2018-04-13T22:26:40.545Z,12.10
2018-04-13T22:29:09.766Z,12.00
2018-04-13T22:31:38.677Z,11.90
2018-04-13T22:34:07.076Z,11.90
2018-04-13T22:36:35.406Z,11.90
2018-04-13T22:39:03.943Z,11.80
2018-04-13T22:41:32.356Z,11.80
2018-04-13T22:44:01.515Z,11.70
2018-04-13T22:46:29.936Z,11.70
2018-04-13T22:48:59.034Z,11.60
2018-04-13T22:51:28.330Z,11.70
2018-04-13T22:53:57.432Z,11.60
2018-04-13T22:56:26.595Z,11.60
2018-04-13T22:58:54.967Z,11.60
2018-04-13T23:01:23.480Z,11.60
2018-04-13T23:03:52.597Z,11.60
2018-04-13T23:06:20.999Z,11.50
2018-04-13T23:08:49.407Z,11.50
2018-04-13T23:11:17.798Z,11.50
2018-04-13T23:13:46.558Z,11.50
2018-04-13T23:16:14.891Z,11.50
2018-04-13T23:18:43.298Z,11.40
2018-04-13T23:21:11.716Z,11.40
2018-04-13T23:23:40.135Z,11.30
2018-04-13T23:26:08.495Z,11.40
2018-04-13T23:28:37.625Z,11.30
2018-04-13T23:31:06.072Z,11.30
2018-04-13T23:33:34.440Z,11.30
2018-04-13T23:36:03.550Z,11.20
2018-04-13T23:38:32.004Z,11.20
2018-04-13T23:41:00.423Z,11.10
2018-04-13T23:43:28.768Z,11.10
2018-04-13T23:45:57.951Z,11.00
2018-04-13T23:48:26.324Z,11.00
2018-04-13T23:50:54.747Z,10.90
2018-04-13T23:53:23.920Z,10.90
2018-04-13T23:55:53.182Z,10.90
2018-04-13T23:58:21.567Z,10.90
